sensor_id;sensor_type;location;lat;lon;timestamp;P1;durP1;ratioP1;P2;durP2;ratioP2
13866;SDS011;7003;46.982;15.248;2024-01-11T00:01:27;6.83;;;3.87;;
13866;SDS011;7003;46.982;15.248;2024-01-11T00:03:54;7.67;;;3.07;;
13866;SDS011;7003;46.982;15.248;2024-01-11T00:06:21;4.43;;;2.43;;
13866;SDS011;7003;46.982;15.248;2024-01-11T00:08:49;13.53;;;4.77;;
13866;SDS011;7003;46.982;15.248;2024-01-11T00:11:16;7.17;;;4.13;;
13866;SDS011;7003;46.982;15.248;2024-01-11T00:13:45;3.20;;;2.90;;
13866;SDS011;7003;46.982;15.248;2024-01-11T00:16:15;5.00;;;4.57;;
13866;SDS011;7003;46.982;15.248;2024-01-11T00:18:45;2.40;;;1.90;;
13866;SDS011;7003;46.982;15.248;2024-01-11T00:21:15;5.10;;;4.03;;
13866;SDS011;7003;46.982;15.248;2024-01-11T00:23:45;4.13;;;3.17;;
13866;SDS011;7003;46.982;15.248;2024-01-11T00:26:14;5.50;;;4.00;;
13866;SDS011;7003;46.982;15.248;2024-01-11T00:28:41;4.37;;;3.97;;
13866;SDS011;7003;46.982;15.248;2024-01-11T00:31:08;2.27;;;1.97;;
13866;SDS011;7003;46.982;15.248;2024-01-11T00:33:38;5.90;;;4.17;;
13866;SDS011;7003;46.982;15.248;2024-01-11T00:36:07;6.33;;;2.97;;
13866;SDS011;7003;46.982;15.248;2024-01-11T00:38:36;4.10;;;3.80;;
13866;SDS011;7003;46.982;15.248;2024-01-11T00:41:06;8.83;;;4.10;;
13866;SDS011;7003;46.982;15.248;2024-01-11T00:43:36;2.77;;;2.57;;
13866;SDS011;7003;46.982;15.248;2024-01-11T00:46:03;4.50;;;4.07;;
13866;SDS011;7003;46.982;15.248;2024-01-11T00:48:30;4.27;;;3.40;;
13866;SDS011;7003;46.982;15.248;2024-01-11T00:50:57;2.87;;;2.67;;
13866;SDS011;7003;46.982;15.248;2024-01-11T00:53:25;5.93;;;4.10;;
13866;SDS011;7003;46.982;15.248;2024-01-11T00:55:56;4.50;;;3.97;;
13866;SDS011;7003;46.982;15.248;2024-01-11T00:58:25;7.23;;;4.70;;
13866;SDS011;7003;46.982;15.248;2024-01-11T01:00:53;5.30;;;3.93;;
13866;SDS011;7003;46.982;15.248;2024-01-11T01:03:23;7.00;;;5.17;;
13866;SDS011;7003;46.982;15.248;2024-01-11T01:05:54;8.07;;;3.87;;
13866;SDS011;7003;46.982;15.248;2024-01-11T01:08:21;4.67;;;2.40;;
13866;SDS011;7003;46.982;15.248;2024-01-11T01:10:49;2.57;;;2.30;;
13866;SDS011;7003;46.982;15.248;2024-01-11T01:13:19;4.37;;;2.90;;
13866;SDS011;7003;46.982;15.248;2024-01-11T01:15:48;2.07;;;1.97;;
13866;SDS011;7003;46.982;15.248;2024-01-11T01:18:15;10.47;;;4.77;;
13866;SDS011;7003;46.982;15.248;2024-01-11T01:20:42;5.87;;;3.57;;
13866;SDS011;7003;46.982;15.248;2024-01-11T01:23:12;3.10;;;2.73;;
13866;SDS011;7003;46.982;15.248;2024-01-11T01:25:39;2.70;;;2.50;;
13866;SDS011;7003;46.982;15.248;2024-01-11T01:28:08;3.27;;;3.00;;
13866;SDS011;7003;46.982;15.248;2024-01-11T01:30:37;5.57;;;4.70;;
13866;SDS011;7003;46.982;15.248;2024-01-11T01:33:05;4.50;;;2.43;;
13866;SDS011;7003;46.982;15.248;2024-01-11T01:35:33;4.33;;;3.90;;
13866;SDS011;7003;46.982;15.248;2024-01-11T01:38:03;4.37;;;3.93;;
13866;SDS011;7003;46.982;15.248;2024-01-11T01:40:31;5.63;;;4.10;;
13866;SDS011;7003;46.982;15.248;2024-01-11T01:42:59;8.00;;;4.87;;
13866;SDS011;7003;46.982;15.248;2024-01-11T01:45:28;3.17;;;2.97;;
13866;SDS011;7003;46.982;15.248;2024-01-11T01:47:59;6.60;;;3.90;;
13866;SDS011;7003;46.982;15.248;2024-01-11T01:50:26;5.27;;;4.13;;
13866;SDS011;7003;46.982;15.248;2024-01-11T01:52:55;9.07;;;3.80;;
13866;SDS011;7003;46.982;15.248;2024-01-11T01:55:24;2.47;;;1.73;;
13866;SDS011;7003;46.982;15.248;2024-01-11T01:57:55;3.03;;;2.77;;
13866;SDS011;7003;46.982;15.248;2024-01-11T02:00:25;6.10;;;5.60;;
13866;SDS011;7003;46.982;15.248;2024-01-11T02:02:57;9.00;;;5.13;;
13866;SDS011;7003;46.982;15.248;2024-01-11T02:05:24;6.20;;;3.40;;
13866;SDS011;7003;46.982;15.248;2024-01-11T02:07:52;4.10;;;3.70;;
13866;SDS011;7003;46.982;15.248;2024-01-11T02:10:21;7.10;;;4.10;;
13866;SDS011;7003;46.982;15.248;2024-01-11T02:12:50;5.43;;;3.77;;
13866;SDS011;7003;46.982;15.248;2024-01-11T02:15:17;4.20;;;3.83;;
13866;SDS011;7003;46.982;15.248;2024-01-11T02:17:44;3.50;;;2.77;;
13866;SDS011;7003;46.982;15.248;2024-01-11T02:20:13;3.57;;;3.33;;
13866;SDS011;7003;46.982;15.248;2024-01-11T02:22:43;5.17;;;3.90;;
13866;SDS011;7003;46.982;15.248;2024-01-11T02:25:15;3.80;;;3.43;;
13866;SDS011;7003;46.982;15.248;2024-01-11T02:27:47;4.53;;;4.10;;
13866;SDS011;7003;46.982;15.248;2024-01-11T02:30:15;5.67;;;4.33;;
13866;SDS011;7003;46.982;15.248;2024-01-11T02:32:44;5.57;;;4.20;;
13866;SDS011;7003;46.982;15.248;2024-01-11T02:35:15;2.93;;;2.73;;
13866;SDS011;7003;46.982;15.248;2024-01-11T02:37:45;3.77;;;3.33;;
13866;SDS011;7003;46.982;15.248;2024-01-11T02:40:15;3.90;;;3.27;;
13866;SDS011;7003;46.982;15.248;2024-01-11T02:42:43;5.80;;;3.67;;
13866;SDS011;7003;46.982;15.248;2024-01-11T02:45:10;4.03;;;3.73;;
13866;SDS011;7003;46.982;15.248;2024-01-11T02:47:39;3.00;;;2.77;;
13866;SDS011;7003;46.982;15.248;2024-01-11T02:50:06;3.93;;;3.60;;
13866;SDS011;7003;46.982;15.248;2024-01-11T02:52:37;2.40;;;2.27;;
13866;SDS011;7003;46.982;15.248;2024-01-11T02:55:04;7.20;;;3.63;;
13866;SDS011;7003;46.982;15.248;2024-01-11T02:57:35;3.93;;;2.20;;
13866;SDS011;7003;46.982;15.248;2024-01-11T03:00:05;11.30;;;5.10;;
13866;SDS011;7003;46.982;15.248;2024-01-11T03:02:36;5.27;;;3.07;;
13866;SDS011;7003;46.982;15.248;2024-01-11T03:05:04;3.63;;;1.53;;
13866;SDS011;7003;46.982;15.248;2024-01-11T03:07:31;4.77;;;3.57;;
13866;SDS011;7003;46.982;15.248;2024-01-11T03:09:58;2.73;;;2.30;;
13866;SDS011;7003;46.982;15.248;2024-01-11T03:12:26;2.50;;;1.83;;
13866;SDS011;7003;46.982;15.248;2024-01-11T03:14:58;7.63;;;3.67;;
13866;SDS011;7003;46.982;15.248;2024-01-11T03:17:25;4.27;;;3.87;;
13866;SDS011;7003;46.982;15.248;2024-01-11T03:19:54;3.03;;;2.73;;
13866;SDS011;7003;46.982;15.248;2024-01-11T03:22:22;3.07;;;2.70;;
13866;SDS011;7003;46.982;15.248;2024-01-11T03:24:51;3.07;;;2.27;;
13866;SDS011;7003;46.982;15.248;2024-01-11T03:27:23;1.20;;;1.07;;
13866;SDS011;7003;46.982;15.248;2024-01-11T03:29:50;3.77;;;3.53;;
13866;SDS011;7003;46.982;15.248;2024-01-11T03:32:21;13.30;;;3.63;;
13866;SDS011;7003;46.982;15.248;2024-01-11T03:34:48;6.93;;;2.27;;
13866;SDS011;7003;46.982;15.248;2024-01-11T03:37:17;4.63;;;2.33;;
13866;SDS011;7003;46.982;15.248;2024-01-11T03:39:45;4.90;;;3.47;;
13866;SDS011;7003;46.982;15.248;2024-01-11T03:42:19;5.30;;;4.93;;
13866;SDS011;7003;46.982;15.248;2024-01-11T03:44:49;8.37;;;3.67;;
13866;SDS011;7003;46.982;15.248;2024-01-11T03:47:18;3.93;;;1.80;;
13866;SDS011;7003;46.982;15.248;2024-01-11T03:49:49;5.57;;;2.87;;
13866;SDS011;7003;46.982;15.248;2024-01-11T03:52:19;13.50;;;3.87;;
13866;SDS011;7003;46.982;15.248;2024-01-11T03:54:49;2.93;;;2.63;;
13866;SDS011;7003;46.982;15.248;2024-01-11T03:57:16;3.70;;;2.30;;
13866;SDS011;7003;46.982;15.248;2024-01-11T03:59:50;3.97;;;3.67;;
13866;SDS011;7003;46.982;15.248;2024-01-11T04:02:17;4.43;;;3.07;;
13866;SDS011;7003;46.982;15.248;2024-01-11T04:04:44;4.67;;;2.77;;
13866;SDS011;7003;46.982;15.248;2024-01-11T04:07:12;3.77;;;3.50;;
13866;SDS011;7003;46.982;15.248;2024-01-11T04:09:41;2.77;;;2.57;;
13866;SDS011;7003;46.982;15.248;2024-01-11T04:12:11;7.47;;;4.57;;
13866;SDS011;7003;46.982;15.248;2024-01-11T04:14:38;3.43;;;2.67;;
13866;SDS011;7003;46.982;15.248;2024-01-11T04:17:08;2.73;;;2.47;;
13866;SDS011;7003;46.982;15.248;2024-01-11T04:19:35;2.30;;;2.03;;
13866;SDS011;7003;46.982;15.248;2024-01-11T04:22:04;2.97;;;2.37;;
13866;SDS011;7003;46.982;15.248;2024-01-11T04:24:32;3.83;;;2.80;;
13866;SDS011;7003;46.982;15.248;2024-01-11T04:27:01;2.10;;;2.00;;
13866;SDS011;7003;46.982;15.248;2024-01-11T04:29:32;2.70;;;2.50;;
13866;SDS011;7003;46.982;15.248;2024-01-11T04:32:00;2.93;;;2.30;;
13866;SDS011;7003;46.982;15.248;2024-01-11T04:34:27;5.40;;;4.37;;
13866;SDS011;7003;46.982;15.248;2024-01-11T04:36:56;3.17;;;2.67;;
13866;SDS011;7003;46.982;15.248;2024-01-11T04:39:23;2.17;;;2.07;;
13866;SDS011;7003;46.982;15.248;2024-01-11T04:41:54;1.87;;;1.60;;
13866;SDS011;7003;46.982;15.248;2024-01-11T04:44:23;2.30;;;1.97;;
13866;SDS011;7003;46.982;15.248;2024-01-11T04:46:50;3.53;;;3.33;;
13866;SDS011;7003;46.982;15.248;2024-01-11T04:49:19;4.03;;;2.70;;
13866;SDS011;7003;46.982;15.248;2024-01-11T04:51:46;2.43;;;2.27;;
13866;SDS011;7003;46.982;15.248;2024-01-11T04:54:13;5.17;;;2.53;;
13866;SDS011;7003;46.982;15.248;2024-01-11T04:56:40;6.60;;;4.17;;
13866;SDS011;7003;46.982;15.248;2024-01-11T04:59:11;4.30;;;3.33;;
13866;SDS011;7003;46.982;15.248;2024-01-11T05:01:41;5.47;;;3.70;;
13866;SDS011;7003;46.982;15.248;2024-01-11T05:04:10;2.00;;;1.90;;
13866;SDS011;7003;46.982;15.248;2024-01-11T05:06:37;10.47;;;1.97;;
13866;SDS011;7003;46.982;15.248;2024-01-11T05:09:04;5.30;;;3.83;;
13866;SDS011;7003;46.982;15.248;2024-01-11T05:11:32;3.53;;;3.20;;
13866;SDS011;7003;46.982;15.248;2024-01-11T05:13:59;2.77;;;2.43;;
13866;SDS011;7003;46.982;15.248;2024-01-11T05:16:28;1.87;;;1.20;;
13866;SDS011;7003;46.982;15.248;2024-01-11T05:18:57;2.47;;;2.00;;
13866;SDS011;7003;46.982;15.248;2024-01-11T05:21:24;2.83;;;2.63;;
13866;SDS011;7003;46.982;15.248;2024-01-11T05:23:54;3.23;;;3.00;;
13866;SDS011;7003;46.982;15.248;2024-01-11T05:26:21;4.23;;;2.13;;
13866;SDS011;7003;46.982;15.248;2024-01-11T05:28:48;8.43;;;4.20;;
13866;SDS011;7003;46.982;15.248;2024-01-11T05:31:17;3.20;;;2.23;;
13866;SDS011;7003;46.982;15.248;2024-01-11T05:33:46;3.77;;;3.47;;
13866;SDS011;7003;46.982;15.248;2024-01-11T05:36:13;7.07;;;4.20;;
13866;SDS011;7003;46.982;15.248;2024-01-11T05:38:40;5.87;;;3.53;;
13866;SDS011;7003;46.982;15.248;2024-01-11T05:41:09;1.80;;;1.47;;
13866;SDS011;7003;46.982;15.248;2024-01-11T05:43:37;4.47;;;2.77;;
13866;SDS011;7003;46.982;15.248;2024-01-11T05:46:04;1.90;;;1.80;;
13866;SDS011;7003;46.982;15.248;2024-01-11T05:48:32;2.40;;;2.13;;
13866;SDS011;7003;46.982;15.248;2024-01-11T05:51:01;5.80;;;3.70;;
13866;SDS011;7003;46.982;15.248;2024-01-11T05:53:28;2.43;;;2.23;;
13866;SDS011;7003;46.982;15.248;2024-01-11T05:55:55;2.57;;;2.47;;
13866;SDS011;7003;46.982;15.248;2024-01-11T05:58:22;3.03;;;2.73;;
13866;SDS011;7003;46.982;15.248;2024-01-11T06:00:49;4.97;;;2.30;;
13866;SDS011;7003;46.982;15.248;2024-01-11T06:03:16;5.40;;;3.57;;
13866;SDS011;7003;46.982;15.248;2024-01-11T06:05:46;2.40;;;2.00;;
13866;SDS011;7003;46.982;15.248;2024-01-11T06:08:14;2.93;;;2.63;;
13866;SDS011;7003;46.982;15.248;2024-01-11T06:10:45;2.27;;;2.07;;
13866;SDS011;7003;46.982;15.248;2024-01-11T06:13:12;2.53;;;2.33;;
13866;SDS011;7003;46.982;15.248;2024-01-11T06:15:39;2.80;;;2.20;;
13866;SDS011;7003;46.982;15.248;2024-01-11T06:18:08;5.60;;;3.43;;
13866;SDS011;7003;46.982;15.248;2024-01-11T06:20:35;3.80;;;2.60;;
13866;SDS011;7003;46.982;15.248;2024-01-11T06:23:02;8.80;;;2.87;;
13866;SDS011;7003;46.982;15.248;2024-01-11T06:25:33;6.13;;;4.70;;
13866;SDS011;7003;46.982;15.248;2024-01-11T06:28:02;3.53;;;3.30;;
13866;SDS011;7003;46.982;15.248;2024-01-11T06:30:29;3.90;;;3.53;;
13866;SDS011;7003;46.982;15.248;2024-01-11T06:32:57;4.83;;;2.47;;
13866;SDS011;7003;46.982;15.248;2024-01-11T06:35:24;1.70;;;1.60;;
13866;SDS011;7003;46.982;15.248;2024-01-11T06:37:51;2.77;;;2.30;;
13866;SDS011;7003;46.982;15.248;2024-01-11T06:40:21;3.60;;;3.27;;
13866;SDS011;7003;46.982;15.248;2024-01-11T06:42:49;5.30;;;2.57;;
13866;SDS011;7003;46.982;15.248;2024-01-11T06:45:16;7.63;;;4.27;;
13866;SDS011;7003;46.982;15.248;2024-01-11T06:47:47;1.70;;;1.57;;
13866;SDS011;7003;46.982;15.248;2024-01-11T06:50:14;3.60;;;3.27;;
13866;SDS011;7003;46.982;15.248;2024-01-11T06:52:42;3.43;;;3.20;;
13866;SDS011;7003;46.982;15.248;2024-01-11T06:55:09;5.17;;;4.03;;
13866;SDS011;7003;46.982;15.248;2024-01-11T06:57:37;8.63;;;3.33;;
13866;SDS011;7003;46.982;15.248;2024-01-11T07:00:06;5.37;;;4.43;;
13866;SDS011;7003;46.982;15.248;2024-01-11T07:02:35;4.57;;;4.00;;
13866;SDS011;7003;46.982;15.248;2024-01-11T07:05:07;4.70;;;3.60;;
13866;SDS011;7003;46.982;15.248;2024-01-11T07:07:37;5.20;;;4.77;;
13866;SDS011;7003;46.982;15.248;2024-01-11T07:10:07;2.73;;;1.80;;
13866;SDS011;7003;46.982;15.248;2024-01-11T07:12:34;4.17;;;2.53;;
13866;SDS011;7003;46.982;15.248;2024-01-11T07:15:07;2.60;;;2.50;;
13866;SDS011;7003;46.982;15.248;2024-01-11T07:17:35;6.47;;;2.63;;
13866;SDS011;7003;46.982;15.248;2024-01-11T07:20:03;2.93;;;2.53;;
13866;SDS011;7003;46.982;15.248;2024-01-11T07:22:31;6.37;;;4.53;;
13866;SDS011;7003;46.982;15.248;2024-01-11T07:24:58;6.03;;;4.10;;
13866;SDS011;7003;46.982;15.248;2024-01-11T07:27:29;1.90;;;1.80;;
13866;SDS011;7003;46.982;15.248;2024-01-11T07:29:56;10.57;;;4.10;;
13866;SDS011;7003;46.982;15.248;2024-01-11T07:32:25;4.20;;;3.80;;
13866;SDS011;7003;46.982;15.248;2024-01-11T07:34:56;6.30;;;3.80;;
13866;SDS011;7003;46.982;15.248;2024-01-11T07:37:25;3.40;;;3.03;;
13866;SDS011;7003;46.982;15.248;2024-01-11T07:39:53;3.90;;;3.10;;
13866;SDS011;7003;46.982;15.248;2024-01-11T07:42:20;2.77;;;2.63;;
13866;SDS011;7003;46.982;15.248;2024-01-11T07:44:51;4.07;;;3.00;;
13866;SDS011;7003;46.982;15.248;2024-01-11T07:47:20;4.77;;;4.03;;
13866;SDS011;7003;46.982;15.248;2024-01-11T07:49:50;4.40;;;4.00;;
13866;SDS011;7003;46.982;15.248;2024-01-11T07:52:17;5.17;;;4.47;;
13866;SDS011;7003;46.982;15.248;2024-01-11T07:54:45;7.03;;;4.60;;
13866;SDS011;7003;46.982;15.248;2024-01-11T07:57:15;5.83;;;3.73;;
13866;SDS011;7003;46.982;15.248;2024-01-11T07:59:42;5.73;;;3.33;;
13866;SDS011;7003;46.982;15.248;2024-01-11T08:02:10;5.07;;;3.27;;
13866;SDS011;7003;46.982;15.248;2024-01-11T08:04:37;5.97;;;4.10;;
13866;SDS011;7003;46.982;15.248;2024-01-11T08:07:08;3.83;;;3.13;;
13866;SDS011;7003;46.982;15.248;2024-01-11T08:09:36;5.17;;;3.87;;
13866;SDS011;7003;46.982;15.248;2024-01-11T08:12:10;5.73;;;5.10;;
13866;SDS011;7003;46.982;15.248;2024-01-11T08:14:41;9.23;;;7.70;;
13866;SDS011;7003;46.982;15.248;2024-01-11T08:17:08;5.53;;;4.03;;
13866;SDS011;7003;46.982;15.248;2024-01-11T08:19:36;8.73;;;5.93;;
13866;SDS011;7003;46.982;15.248;2024-01-11T08:22:05;4.67;;;3.67;;
13866;SDS011;7003;46.982;15.248;2024-01-11T08:24:37;2.97;;;2.77;;
13866;SDS011;7003;46.982;15.248;2024-01-11T08:27:06;5.10;;;3.60;;
13866;SDS011;7003;46.982;15.248;2024-01-11T08:29:36;5.57;;;4.90;;
13866;SDS011;7003;46.982;15.248;2024-01-11T08:32:04;4.37;;;3.97;;
13866;SDS011;7003;46.982;15.248;2024-01-11T08:34:32;11.80;;;5.27;;
13866;SDS011;7003;46.982;15.248;2024-01-11T08:37:02;8.87;;;3.47;;
13866;SDS011;7003;46.982;15.248;2024-01-11T08:39:32;12.80;;;4.07;;
13866;SDS011;7003;46.982;15.248;2024-01-11T08:42:04;11.30;;;4.73;;
13866;SDS011;7003;46.982;15.248;2024-01-11T08:44:32;9.77;;;6.17;;
13866;SDS011;7003;46.982;15.248;2024-01-11T08:47:02;9.00;;;5.63;;
13866;SDS011;7003;46.982;15.248;2024-01-11T08:49:30;10.80;;;5.83;;
13866;SDS011;7003;46.982;15.248;2024-01-11T08:51:57;9.97;;;4.40;;
13866;SDS011;7003;46.982;15.248;2024-01-11T08:54:24;6.13;;;3.60;;
13866;SDS011;7003;46.982;15.248;2024-01-11T08:56:54;6.40;;;5.37;;
13866;SDS011;7003;46.982;15.248;2024-01-11T08:59:23;6.63;;;6.03;;
13866;SDS011;7003;46.982;15.248;2024-01-11T09:01:53;12.63;;;6.73;;
13866;SDS011;7003;46.982;15.248;2024-01-11T09:04:21;5.93;;;5.03;;
13866;SDS011;7003;46.982;15.248;2024-01-11T09:06:51;12.07;;;6.87;;
13866;SDS011;7003;46.982;15.248;2024-01-11T09:09:20;11.07;;;8.10;;
13866;SDS011;7003;46.982;15.248;2024-01-11T09:11:50;5.70;;;4.57;;
13866;SDS011;7003;46.982;15.248;2024-01-11T09:14:18;10.33;;;5.67;;
13866;SDS011;7003;46.982;15.248;2024-01-11T09:16:49;4.10;;;3.70;;
13866;SDS011;7003;46.982;15.248;2024-01-11T09:19:17;8.60;;;5.67;;
13866;SDS011;7003;46.982;15.248;2024-01-11T09:21:44;3.67;;;3.37;;
13866;SDS011;7003;46.982;15.248;2024-01-11T09:24:14;5.63;;;4.83;;
13866;SDS011;7003;46.982;15.248;2024-01-11T09:26:41;9.47;;;4.80;;
13866;SDS011;7003;46.982;15.248;2024-01-11T09:29:11;9.33;;;4.67;;
13866;SDS011;7003;46.982;15.248;2024-01-11T09:31:41;8.43;;;5.43;;
13866;SDS011;7003;46.982;15.248;2024-01-11T09:34:10;12.30;;;5.93;;
13866;SDS011;7003;46.982;15.248;2024-01-11T09:36:37;6.47;;;5.00;;
13866;SDS011;7003;46.982;15.248;2024-01-11T09:39:08;4.23;;;3.47;;
13866;SDS011;7003;46.982;15.248;2024-01-11T09:41:37;5.83;;;5.33;;
13866;SDS011;7003;46.982;15.248;2024-01-11T09:44:09;4.00;;;3.60;;
13866;SDS011;7003;46.982;15.248;2024-01-11T09:46:36;3.83;;;3.00;;
13866;SDS011;7003;46.982;15.248;2024-01-11T09:49:04;9.67;;;4.83;;
13866;SDS011;7003;46.982;15.248;2024-01-11T09:51:34;5.23;;;4.40;;
13866;SDS011;7003;46.982;15.248;2024-01-11T09:54:07;4.67;;;4.13;;
13866;SDS011;7003;46.982;15.248;2024-01-11T09:56:37;6.23;;;5.00;;
13866;SDS011;7003;46.982;15.248;2024-01-11T09:59:04;7.33;;;4.30;;
13866;SDS011;7003;46.982;15.248;2024-01-11T10:01:35;7.30;;;5.27;;
13866;SDS011;7003;46.982;15.248;2024-01-11T10:04:03;7.53;;;4.83;;
13866;SDS011;7003;46.982;15.248;2024-01-11T10:06:31;6.03;;;4.90;;
13866;SDS011;7003;46.982;15.248;2024-01-11T10:09:03;11.57;;;4.87;;
13866;SDS011;7003;46.982;15.248;2024-01-11T10:11:30;8.67;;;5.50;;
13866;SDS011;7003;46.982;15.248;2024-01-11T10:14:00;6.20;;;4.13;;
13866;SDS011;7003;46.982;15.248;2024-01-11T10:16:28;6.53;;;5.27;;
13866;SDS011;7003;46.982;15.248;2024-01-11T10:18:58;7.93;;;5.47;;
13866;SDS011;7003;46.982;15.248;2024-01-11T10:21:28;6.37;;;3.63;;
13866;SDS011;7003;46.982;15.248;2024-01-11T10:23:58;7.20;;;5.80;;
13866;SDS011;7003;46.982;15.248;2024-01-11T10:26:33;9.87;;;6.50;;
13866;SDS011;7003;46.982;15.248;2024-01-11T10:29:00;7.70;;;5.27;;
13866;SDS011;7003;46.982;15.248;2024-01-11T10:31:28;6.40;;;5.23;;
13866;SDS011;7003;46.982;15.248;2024-01-11T10:33:57;8.57;;;6.83;;
13866;SDS011;7003;46.982;15.248;2024-01-11T10:36:24;13.80;;;7.77;;
13866;SDS011;7003;46.982;15.248;2024-01-11T10:38:52;12.73;;;6.33;;
13866;SDS011;7003;46.982;15.248;2024-01-11T10:41:23;11.13;;;5.53;;
13866;SDS011;7003;46.982;15.248;2024-01-11T10:43:54;10.10;;;5.70;;
13866;SDS011;7003;46.982;15.248;2024-01-11T10:46:27;4.93;;;4.23;;
13866;SDS011;7003;46.982;15.248;2024-01-11T10:48:56;9.17;;;5.93;;
13866;SDS011;7003;46.982;15.248;2024-01-11T10:51:26;8.35;;;6.97;;
13866;SDS011;7003;46.982;15.248;2024-01-11T10:53:59;9.70;;;6.90;;
13866;SDS011;7003;46.982;15.248;2024-01-11T10:56:31;9.65;;;8.68;;
13866;SDS011;7003;46.982;15.248;2024-01-11T10:59:00;8.35;;;6.15;;
13866;SDS011;7003;46.982;15.248;2024-01-11T11:01:29;10.38;;;7.03;;
13866;SDS011;7003;46.982;15.248;2024-01-11T11:03:59;9.65;;;5.47;;
13866;SDS011;7003;46.982;15.248;2024-01-11T11:06:28;9.48;;;4.55;;
13866;SDS011;7003;46.982;15.248;2024-01-11T11:09:01;8.02;;;4.93;;
13866;SDS011;7003;46.982;15.248;2024-01-11T11:11:31;9.55;;;5.95;;
13866;SDS011;7003;46.982;15.248;2024-01-11T11:14:02;9.85;;;6.28;;
13866;SDS011;7003;46.982;15.248;2024-01-11T11:16:32;8.50;;;4.85;;
13866;SDS011;7003;46.982;15.248;2024-01-11T11:18:59;7.90;;;5.47;;
13866;SDS011;7003;46.982;15.248;2024-01-11T11:21:29;63.85;;;36.28;;
13866;SDS011;7003;46.982;15.248;2024-01-11T11:23:57;48.10;;;30.75;;
13866;SDS011;7003;46.982;15.248;2024-01-11T11:26:27;13.15;;;8.98;;
13866;SDS011;7003;46.982;15.248;2024-01-11T11:28:59;7.15;;;6.00;;
13866;SDS011;7003;46.982;15.248;2024-01-11T11:31:35;11.07;;;6.10;;
13866;SDS011;7003;46.982;15.248;2024-01-11T11:34:06;5.00;;;4.15;;
13866;SDS011;7003;46.982;15.248;2024-01-11T11:36:33;7.63;;;5.05;;
13866;SDS011;7003;46.982;15.248;2024-01-11T11:39:04;8.32;;;4.93;;
13866;SDS011;7003;46.982;15.248;2024-01-11T11:41:33;7.32;;;5.13;;
13866;SDS011;7003;46.982;15.248;2024-01-11T11:44:05;8.80;;;5.03;;
13866;SDS011;7003;46.982;15.248;2024-01-11T11:46:33;10.75;;;6.22;;
13866;SDS011;7003;46.982;15.248;2024-01-11T11:49:00;5.70;;;4.75;;
13866;SDS011;7003;46.982;15.248;2024-01-11T11:51:28;10.98;;;4.88;;
13866;SDS011;7003;46.982;15.248;2024-01-11T11:53:59;6.40;;;4.28;;
13866;SDS011;7003;46.982;15.248;2024-01-11T11:56:28;9.73;;;6.25;;
13866;SDS011;7003;46.982;15.248;2024-01-11T11:58:59;10.73;;;5.68;;
13866;SDS011;7003;46.982;15.248;2024-01-11T12:01:33;7.50;;;5.10;;
13866;SDS011;7003;46.982;15.248;2024-01-11T12:04:04;16.38;;;11.40;;
13866;SDS011;7003;46.982;15.248;2024-01-11T12:06:34;10.18;;;6.60;;
13866;SDS011;7003;46.982;15.248;2024-01-11T12:09:01;10.20;;;6.05;;
13866;SDS011;7003;46.982;15.248;2024-01-11T12:11:29;6.70;;;5.72;;
13866;SDS011;7003;46.982;15.248;2024-01-11T12:14:00;7.40;;;6.15;;
13866;SDS011;7003;46.982;15.248;2024-01-11T12:16:30;10.52;;;7.90;;
13866;SDS011;7003;46.982;15.248;2024-01-11T12:19:01;9.48;;;7.45;;
13866;SDS011;7003;46.982;15.248;2024-01-11T12:21:29;10.25;;;6.55;;
13866;SDS011;7003;46.982;15.248;2024-01-11T12:23:56;9.23;;;6.60;;
13866;SDS011;7003;46.982;15.248;2024-01-11T12:26:24;9.98;;;6.90;;
13866;SDS011;7003;46.982;15.248;2024-01-11T12:28:51;11.90;;;7.65;;
13866;SDS011;7003;46.982;15.248;2024-01-11T12:31:19;8.90;;;6.72;;
13866;SDS011;7003;46.982;15.248;2024-01-11T12:33:50;11.13;;;7.20;;
13866;SDS011;7003;46.982;15.248;2024-01-11T12:36:20;9.93;;;6.38;;
13866;SDS011;7003;46.982;15.248;2024-01-11T12:38:48;14.70;;;8.43;;
13866;SDS011;7003;46.982;15.248;2024-01-11T12:41:16;11.15;;;6.60;;
13866;SDS011;7003;46.982;15.248;2024-01-11T12:43:43;8.93;;;6.20;;
13866;SDS011;7003;46.982;15.248;2024-01-11T12:46:11;8.32;;;5.15;;
13866;SDS011;7003;46.982;15.248;2024-01-11T12:48:38;16.58;;;5.70;;
13866;SDS011;7003;46.982;15.248;2024-01-11T12:51:05;10.10;;;6.03;;
13866;SDS011;7003;46.982;15.248;2024-01-11T12:53:37;6.00;;;5.47;;
13866;SDS011;7003;46.982;15.248;2024-01-11T12:56:04;11.02;;;5.32;;
13866;SDS011;7003;46.982;15.248;2024-01-11T12:58:38;9.25;;;5.95;;
13866;SDS011;7003;46.982;15.248;2024-01-11T13:01:08;6.03;;;4.18;;
13866;SDS011;7003;46.982;15.248;2024-01-11T13:03:39;5.55;;;4.80;;
13866;SDS011;7003;46.982;15.248;2024-01-11T13:06:14;14.05;;;5.25;;
13866;SDS011;7003;46.982;15.248;2024-01-11T13:08:44;5.40;;;3.90;;
13866;SDS011;7003;46.982;15.248;2024-01-11T13:11:11;5.00;;;3.80;;
13866;SDS011;7003;46.982;15.248;2024-01-11T13:13:44;6.72;;;4.65;;
13866;SDS011;7003;46.982;15.248;2024-01-11T13:16:12;9.32;;;4.65;;
13866;SDS011;7003;46.982;15.248;2024-01-11T13:18:43;5.88;;;4.78;;
13866;SDS011;7003;46.982;15.248;2024-01-11T13:21:10;4.70;;;3.78;;
13866;SDS011;7003;46.982;15.248;2024-01-11T13:23:38;7.85;;;5.13;;
13866;SDS011;7003;46.982;15.248;2024-01-11T13:26:10;8.23;;;5.40;;
13866;SDS011;7003;46.982;15.248;2024-01-11T13:28:38;9.50;;;5.70;;
13866;SDS011;7003;46.982;15.248;2024-01-11T13:31:06;5.47;;;4.93;;
13866;SDS011;7003;46.982;15.248;2024-01-11T13:33:38;8.73;;;5.07;;
13866;SDS011;7003;46.982;15.248;2024-01-11T13:36:06;8.23;;;5.93;;
13866;SDS011;7003;46.982;15.248;2024-01-11T13:38:34;7.07;;;5.47;;
13866;SDS011;7003;46.982;15.248;2024-01-11T13:41:02;9.47;;;5.47;;
13866;SDS011;7003;46.982;15.248;2024-01-11T13:43:34;8.83;;;4.97;;
13866;SDS011;7003;46.982;15.248;2024-01-11T13:46:02;9.00;;;6.70;;
13866;SDS011;7003;46.982;15.248;2024-01-11T13:48:30;7.40;;;5.40;;
13866;SDS011;7003;46.982;15.248;2024-01-11T13:50:58;8.03;;;5.27;;
13866;SDS011;7003;46.982;15.248;2024-01-11T13:53:29;7.77;;;4.90;;
13866;SDS011;7003;46.982;15.248;2024-01-11T13:55:58;5.57;;;4.73;;
13866;SDS011;7003;46.982;15.248;2024-01-11T13:58:28;7.87;;;4.37;;
13866;SDS011;7003;46.982;15.248;2024-01-11T14:00:56;7.47;;;4.67;;
13866;SDS011;7003;46.982;15.248;2024-01-11T14:03:24;7.23;;;6.53;;
13866;SDS011;7003;46.982;15.248;2024-01-11T14:05:51;6.80;;;5.03;;
13866;SDS011;7003;46.982;15.248;2024-01-11T14:08:19;4.23;;;2.93;;
13866;SDS011;7003;46.982;15.248;2024-01-11T14:10:46;8.87;;;5.63;;
13866;SDS011;7003;46.982;15.248;2024-01-11T14:13:13;7.60;;;4.67;;
13866;SDS011;7003;46.982;15.248;2024-01-11T14:15:44;5.20;;;4.57;;
13866;SDS011;7003;46.982;15.248;2024-01-11T14:18:17;8.07;;;4.33;;
13866;SDS011;7003;46.982;15.248;2024-01-11T14:20:48;7.40;;;6.23;;
13866;SDS011;7003;46.982;15.248;2024-01-11T14:23:18;5.37;;;4.27;;
13866;SDS011;7003;46.982;15.248;2024-01-11T14:25:46;7.50;;;4.63;;
13866;SDS011;7003;46.982;15.248;2024-01-11T14:28:14;8.97;;;5.57;;
13866;SDS011;7003;46.982;15.248;2024-01-11T14:30:45;8.83;;;5.63;;
13866;SDS011;7003;46.982;15.248;2024-01-11T14:33:12;5.67;;;4.67;;
13866;SDS011;7003;46.982;15.248;2024-01-11T14:35:41;4.37;;;3.97;;
13866;SDS011;7003;46.982;15.248;2024-01-11T14:38:08;7.77;;;4.60;;
13866;SDS011;7003;46.982;15.248;2024-01-11T14:40:36;5.83;;;3.63;;
13866;SDS011;7003;46.982;15.248;2024-01-11T14:43:05;5.07;;;4.60;;
13866;SDS011;7003;46.982;15.248;2024-01-11T14:45:36;7.40;;;4.17;;
13866;SDS011;7003;46.982;15.248;2024-01-11T14:48:04;6.73;;;4.83;;
13866;SDS011;7003;46.982;15.248;2024-01-11T14:50:32;7.13;;;4.13;;
13866;SDS011;7003;46.982;15.248;2024-01-11T14:53:03;7.30;;;5.00;;
13866;SDS011;7003;46.982;15.248;2024-01-11T14:55:35;8.77;;;4.57;;